Nearby METAR Reports

 

KMNN - Marion, Ohio, USA
Distance from station: ENE 4mi, 6km
Updated: 07/23/2024 8:53am
Mist, Mostly cloudy
Mist, Mostly cloudy
 Wind from S
Wind: S 8 mph, 13 km/h
Temperature: 70°F, 21°C
Dew Point: 66°F, 19°C
Humidity: 88%
Barometer: 30.08 inHg, 1018.6 hPa
Summary: Mist
Clouds: Mostly cloudy
Visibility: 6 miles, 10 km
Cloud details: Mostly cloudy 8000 ft
2024/07/23 12:53 KMNN 231253Z AUTO 18007KT 6SM BR BKN080 21/19 A3008 RMK AO2 SLP181 T02110189
KDLZ - Delaware, Ohio, USA
Distance from station: S 21mi, 34km
Updated: 07/23/2024 9:35am

 Wind from calm
Wind: Calm
Temperature: 73°F, 23°C
Dew Point: 70°F, 21°C
Humidity: 89%
Barometer: 30.09 inHg, 1019 hPa
2024/07/23 13:35 KDLZ 231335Z AUTO 00000KT 23/21 A3009 RMK AO2 PWINO
 
KMRT - Marysville, Ohio, USA
Distance from station: SSW 28mi, 45km
Updated: 07/23/2024 9:15am
Overcast
Overcast
 Wind from calm
Wind: Calm
Temperature: 70°F, 21°C
Dew Point: 68°F, 20°C
Humidity: 94%
Barometer: 30.09 inHg, 1019 hPa
Clouds: Overcast
Visibility: 10 miles, 16 km
Cloud details: Partly cloudy 6500 ft
Overcast 7500 ft
2024/07/23 13:15 KMRT 231315Z AUTO 00000KT 10SM SCT065 OVC075 21/20 A3009 RMK AO2 T02100198
KOSU - Columbus/St Univ, Ohio, USA
Distance from station: S 35mi, 56km
Updated: 07/23/2024 8:53am
Partly cloudy
Partly cloudy
 Wind from calm
Wind: Calm
Temperature: 73°F, 23°C
Dew Point: 66°F, 19°C
Humidity: 78%
Barometer: 30.08 inHg, 1018.6 hPa
Clouds: Partly cloudy
Visibility: 8 miles, 13 km
Cloud details: Partly cloudy 7000 ft
2024/07/23 12:53 KOSU 231253Z 00000KT 8SM SCT070 23/19 A3008 RMK AO2 SLP177 T02330189
 
KMFD - Mansfield, Ohio, USA
Distance from station: ENE 36mi, 57km
Updated: 07/23/2024 8:52am
Clear
Clear
 Wind from S
Wind: S 6 mph, 9 km/h
Temperature: 72°F, 22°C
Dew Point: 64°F, 18°C
Humidity: 78%
Barometer: 30.09 inHg, 1019 hPa
Clouds: Clear
Visibility: 8 miles, 13 km
2024/07/23 12:52 KMFD 231252Z 19005KT 8SM CLR 22/18 A3009 RMK AO2 SLP182 T02220178
K4I3 - Mt Vernon/Knox, Ohio, USA
Distance from station: ESE 36mi, 58km
Updated: 07/23/2024 9:15am
Clear
Clear
 Wind from calm
Wind: Calm
Temperature: 68°F, 20°C
Dew Point: 66°F, 19°C
Humidity: 94%
Barometer: 30.11 inHg, 1019.6 hPa
Clouds: Clear
Visibility: 7 miles, 11 km
2024/07/23 13:15 K4I3 231315Z AUTO 00000KT 7SM CLR 20/19 A3011 RMK AO2
 
KEDJ - Bellefontaine, Ohio, USA
Distance from station: WSW 39mi, 63km
Updated: 07/23/2024 9:35am
Mostly cloudy
Mostly cloudy
 Wind from calm
Wind: Calm
Temperature: 72°F, 22°C
Dew Point: 70°F, 21°C
Humidity: 94%
Barometer: 30.09 inHg, 1019 hPa
Clouds: Mostly cloudy
Visibility: 10 miles, 16 km
Cloud details: Mostly cloudy 6000 ft
Mostly cloudy 6500 ft
2024/07/23 13:35 KEDJ 231335Z AUTO 00000KT 10SM BKN060 BKN065 22/21 A3009 RMK A01
KFDY - Findlay, Ohio, USA
Distance from station: NW 41mi, 66km
Updated: 07/23/2024 8:53am
Clear
Clear
 Wind from S
Wind: S 5 mph, 7 km/h
Temperature: 73°F, 23°C
Dew Point: 66°F, 19°C
Humidity: 78%
Barometer: 30.05 inHg, 1017.6 hPa
Clouds: Clear
Visibility: 10 miles, 16 km
2024/07/23 12:53 KFDY 231253Z AUTO 19004KT 10SM CLR 23/19 A3005 RMK AO2 SLP166 T02280189
 
KCMH - Columbus, Ohio, USA
Distance from station: SSE 43mi, 69km
Updated: 07/23/2024 8:51am
Partly cloudy
Partly cloudy
 Wind from SSE
Wind: SSE 3 mph, 6 km/h
Temperature: 72°F, 22°C
Dew Point: 66°F, 19°C
Humidity: 83%
Barometer: 30.07 inHg, 1018.3 hPa
Clouds: Partly cloudy
Visibility: 10 miles, 16 km
Cloud details: Partly cloudy 9000 ft
2024/07/23 12:51 KCMH 231251Z 16003KT 10SM SCT090 22/19 A3007 RMK AO2 SLP177 T02220194
KAOH - Lima, Ohio, USA
Distance from station: W 47mi, 76km
Updated: 07/23/2024 8:53am
Few Clouds
Few Clouds
 Wind from S
Wind: S 5 mph, 7 km/h
Temperature: 72°F, 22°C
Dew Point: 66°F, 19°C
Humidity: 83%
Barometer: 30.07 inHg, 1018.3 hPa
Clouds: Few Clouds
Visibility: 8 miles, 13 km
Cloud details: Few Clouds 5500 ft
2024/07/23 12:53 KAOH 231253Z AUTO 18004KT 8SM FEW055 22/19 A3007 RMK AO2 SLP174 T02220194
 
KTZR - Columbus/Bolton, Ohio, USA
Distance from station: S 48mi, 77km
Updated: 07/23/2024 8:45am
Clear
Clear
 Wind from calm
Wind: Calm
Temperature: 72°F, 22°C
Dew Point: 68°F, 20°C
Humidity: 88%
Barometer: 30.08 inHg, 1018.6 hPa
Clouds: Clear
Visibility: 10 miles, 16 km
2024/07/23 12:45 KTZR 231245Z 00000KT 10SM CLR 22/20 A3008
KUYF - London, Ohio, USA
Distance from station: SSW 49mi, 78km
Updated: 07/23/2024 9:35am

 Wind from calm
Wind: Calm
Temperature: 72°F, 22°C
Dew Point: 68°F, 20°C
Humidity: 88%
Barometer: 30.10 inHg, 1019.3 hPa
Visibility: 10 miles, 16 km
2024/07/23 13:35 KUYF 231335Z AUTO 00000KT 10SM 22/20 A3010 RMK AO2